Time;durP1;ratioP1;P1;durP2;ratioP2;P2;SDS_P1;SDS_P2;PMS_P1;PMS_P2;Temp;Humidity;BMP_temperature;BMP_pressure;BME280_temperature;BME280_humidity;BME280_pressure;Samples;Min_cycle;Max_cycle;Signal;HPM_P1;HPM_P2
2023/06/16 00:01:44;;;;;;;4.37;3.60;;;;;;;24.14;49.10;100293.66;5053317;28;20173;-71
2023/06/16 00:04:10;;;;;;;5.30;3.50;;;;;;;24.15;48.58;100288.72;5052443;28;20271;-72
2023/06/16 00:06:37;;;;;;;5.60;3.40;;;;;;;24.14;48.81;100284.19;5070867;28;20425;-71
2023/06/16 00:09:02;;;;;;;4.30;3.33;;;;;;;24.14;48.70;100285.00;5073511;28;20187;-71
2023/06/16 00:11:28;;;;;;;3.50;2.77;;;;;;;24.14;49.07;100287.88;5069408;28;20436;-71
2023/06/16 00:13:54;;;;;;;4.70;3.30;;;;;;;24.14;49.14;100290.78;5072864;28;20276;-72
2023/06/16 00:16:19;;;;;;;5.00;3.03;;;;;;;24.13;49.09;100283.38;5057931;28;20952;-72
2023/06/16 00:18:52;;;;;;;4.40;3.37;;;;;;;24.12;49.02;100284.63;5048175;28;20191;-72
2023/06/16 00:21:25;;;;;;;4.30;3.57;;;;;;;24.12;48.53;100290.38;5050422;28;20203;-71
2023/06/16 00:23:51;;;;;;;4.50;3.47;;;;;;;24.12;49.08;100283.78;5046296;28;20501;-71
2023/06/16 00:26:16;;;;;;;4.33;3.50;;;;;;;24.12;49.21;100283.78;5049764;28;20834;-71
2023/06/16 00:28:42;;;;;;;4.87;3.30;;;;;;;24.10;48.93;100281.34;5038637;28;20239;-71
2023/06/16 00:31:07;;;;;;;4.43;3.27;;;;;;;24.11;48.95;100282.97;5053464;28;20179;-71
2023/06/16 00:33:33;;;;;;;4.37;3.03;;;;;;;24.11;49.18;100282.97;5053235;28;20184;-71
2023/06/16 00:35:58;;;;;;;4.60;3.03;;;;;;;24.11;49.17;100285.03;5069959;28;20179;-71
2023/06/16 00:38:24;;;;;;;4.00;3.50;;;;;;;24.10;48.95;100281.34;5073845;28;20181;-73
2023/06/16 00:40:49;;;;;;;3.80;3.00;;;;;;;24.10;49.18;100284.22;5047450;28;20190;-71
2023/06/16 00:43:15;;;;;;;7.27;3.50;;;;;;;24.09;49.03;100285.44;5049149;28;20180;-72
2023/06/16 00:45:40;;;;;;;5.53;3.50;;;;;;;24.10;49.01;100277.63;5036628;28;20182;-71
2023/06/16 00:48:05;;;;;;;4.63;3.60;;;;;;;24.09;49.15;100282.56;5040373;28;20187;-71
2023/06/16 00:50:31;;;;;;;6.17;3.93;;;;;;;24.09;49.25;100282.56;5053254;28;20238;-71
2023/06/16 00:52:56;;;;;;;4.13;3.37;;;;;;;24.09;49.23;100291.22;5034703;28;20167;-71
2023/06/16 00:55:22;;;;;;;5.17;3.50;;;;;;;24.09;49.14;100284.63;5070172;28;20171;-71
2023/06/16 00:57:50;;;;;;;5.30;3.40;;;;;;;24.09;48.83;100282.56;5055898;28;20684;-71
2023/06/16 01:00:38;;;;;;;4.40;3.50;;;;;;;24.08;48.99;100280.91;5054176;28;20184;-72
2023/06/16 01:03:08;;;;;;;4.40;3.53;;;;;;;24.07;48.86;100285.06;5059907;28;20424;-72
2023/06/16 01:05:34;;;;;;;6.13;3.13;;;;;;;24.07;49.02;100276.41;5036906;28;20933;-71
2023/06/16 01:08:12;;;;;;;5.73;3.13;;;;;;;24.07;48.71;100285.06;5053601;28;20420;-71
2023/06/16 01:11:03;;;;;;;4.60;3.70;;;;;;;24.07;49.39;100287.94;5070341;28;20169;-71
2023/06/16 01:13:43;;;;;;;5.63;3.80;;;;;;;24.06;49.22;100292.06;5076554;28;20452;-71
2023/06/16 01:16:08;;;;;;;4.83;3.97;;;;;;;24.07;49.06;100285.06;5073795;28;20929;-71
2023/06/16 01:18:34;;;;;;;4.00;3.33;;;;;;;24.07;49.24;100295.75;5056914;28;20429;-71
2023/06/16 01:21:24;;;;;;;5.50;3.80;;;;;;;24.06;49.29;100292.06;5053218;28;20174;-71
2023/06/16 01:24:02;;;;;;;3.70;2.90;;;;;;;24.06;49.07;100292.06;5090708;28;20575;-71
2023/06/16 01:26:29;;;;;;;5.57;3.73;;;;;;;24.07;49.13;100295.75;5072626;28;20439;-71
2023/06/16 01:28:54;;;;;;;4.87;3.30;;;;;;;24.05;49.03;100296.19;5056364;28;20488;-72
2023/06/16 01:31:21;;;;;;;4.53;3.33;;;;;;;24.05;49.28;100301.97;5088513;28;21353;-72
2023/06/16 01:33:46;;;;;;;4.87;3.40;;;;;;;24.05;48.83;100296.19;5072394;28;20249;-71
2023/06/16 01:36:12;;;;;;;4.70;3.70;;;;;;;24.04;49.16;100291.63;5055186;28;20428;-72
2023/06/16 01:38:38;;;;;;;4.20;3.43;;;;;;;24.04;49.10;100288.75;5068259;28;20190;-72
2023/06/16 01:41:03;;;;;;;4.83;3.60;;;;;;;24.04;49.19;100293.72;5068788;28;20429;-72
2023/06/16 01:43:29;;;;;;;4.40;3.47;;;;;;;24.03;49.17;100292.88;5065141;28;20562;-71
2023/06/16 01:45:54;;;;;;;6.17;3.63;;;;;;;24.03;49.17;100289.19;5056664;28;20167;-72
2023/06/16 01:48:20;;;;;;;7.77;3.97;;;;;;;24.03;48.78;100292.88;5075141;28;20178;-71
2023/06/16 01:50:45;;;;;;;5.00;3.70;;;;;;;24.02;49.15;100297.03;5056720;28;20227;-72
2023/06/16 01:53:11;;;;;;;6.10;3.90;;;;;;;24.01;49.04;100289.63;5056977;28;20163;-71
2023/06/16 01:55:36;;;;;;;5.80;3.50;;;;;;;24.01;48.94;100295.38;5059278;28;20215;-71
2023/06/16 01:58:01;;;;;;;4.20;3.50;;;;;;;24.02;49.02;100290.41;5073191;28;20531;-72
2023/06/16 02:00:29;;;;;;;4.70;3.47;;;;;;;24.01;49.35;100289.63;5065025;28;20198;-71
2023/06/16 02:03:15;;;;;;;5.97;3.87;;;;;;;24.02;49.09;100296.19;5041620;28;20754;-72
2023/06/16 02:05:43;;;;;;;4.40;3.43;;;;;;;24.01;49.00;100289.63;5056872;28;20777;-72
2023/06/16 02:08:09;;;;;;;4.70;4.20;;;;;;;24.01;49.27;100301.16;5055348;28;20503;-71
2023/06/16 02:10:34;;;;;;;4.83;3.90;;;;;;;24.00;49.20;100292.91;5072038;28;20679;-72
2023/06/16 02:13:00;;;;;;;4.87;3.70;;;;;;;23.99;48.94;100292.06;5057739;28;20275;-71
2023/06/16 02:15:27;;;;;;;4.90;3.80;;;;;;;23.99;49.41;100289.19;5059390;28;20205;-72
2023/06/16 02:17:53;;;;;;;4.90;3.60;;;;;;;23.99;49.31;100292.06;5059061;28;20276;-72
2023/06/16 02:20:18;;;;;;;6.40;3.90;;;;;;;24.00;49.13;100298.69;5076935;28;20401;-72
2023/06/16 02:22:43;;;;;;;4.73;3.00;;;;;;;23.99;49.40;100297.84;5089128;28;20679;-72
2023/06/16 02:25:09;;;;;;;4.70;3.80;;;;;;;23.99;49.25;100300.72;5086550;28;20181;-72
2023/06/16 02:27:34;;;;;;;4.30;3.70;;;;;;;23.98;49.42;100301.16;5076127;28;20244;-72
2023/06/16 02:30:00;;;;;;;5.17;3.90;;;;;;;23.99;49.28;100303.63;5075755;28;20228;-72
2023/06/16 02:32:26;;;;;;;4.43;3.57;;;;;;;23.98;49.13;100301.16;5059474;28;20170;-71
2023/06/16 02:34:52;;;;;;;3.53;2.73;;;;;;;23.96;49.13;100301.59;5061448;28;20249;-72
2023/06/16 02:37:20;;;;;;;5.50;3.80;;;;;;;23.97;48.81;100299.50;5068408;28;21018;-72
2023/06/16 02:39:46;;;;;;;4.80;3.80;;;;;;;23.97;49.46;100296.63;5092457;28;20437;-72
2023/06/16 02:42:11;;;;;;;4.20;3.60;;;;;;;23.96;49.35;100297.88;5087513;28;20927;-72
2023/06/16 02:44:36;;;;;;;5.40;3.50;;;;;;;23.96;49.13;100294.97;5038419;28;20175;-71
2023/06/16 02:47:03;;;;;;;4.87;3.73;;;;;;;23.95;49.15;100297.06;5052860;28;20205;-72
2023/06/16 02:49:28;;;;;;;4.23;3.57;;;;;;;23.96;49.14;100303.63;5061154;28;20265;-72
2023/06/16 02:51:54;;;;;;;5.37;3.97;;;;;;;23.95;49.16;100305.72;5059952;28;20417;-71
2023/06/16 02:54:19;;;;;;;5.20;3.93;;;;;;;23.95;49.17;100307.75;5076278;28;20894;-72
2023/06/16 02:56:45;;;;;;;4.40;3.77;;;;;;;23.95;49.25;100299.13;5075545;28;20217;-71
2023/06/16 02:59:10;;;;;;;5.27;3.80;;;;;;;23.93;49.30;100299.53;5063438;28;20170;-72
2023/06/16 03:01:37;;;;;;;4.60;3.57;;;;;;;23.93;49.21;100311.06;5059909;28;20239;-72
2023/06/16 03:04:03;;;;;;;4.90;3.70;;;;;;;23.95;49.34;100304.88;5059693;28;20629;-72
2023/06/16 03:06:29;;;;;;;6.03;3.70;;;;;;;23.93;49.49;100313.94;5074222;28;20692;-72
2023/06/16 03:08:57;;;;;;;4.83;4.00;;;;;;;23.92;49.06;100309.41;5077268;28;20416;-72
2023/06/16 03:11:23;;;;;;;4.53;3.80;;;;;;;23.93;49.46;100302.41;5078274;28;20438;-72
2023/06/16 03:13:48;;;;;;;4.40;3.80;;;;;;;23.92;49.50;100297.88;5047658;28;20472;-72
2023/06/16 03:16:16;;;;;;;3.90;3.47;;;;;;;23.91;49.37;100299.13;5081882;28;20213;-71
2023/06/16 03:18:42;;;;;;;5.80;3.70;;;;;;;23.91;49.78;100296.25;5073272;28;20189;-72
2023/06/16 03:21:08;;;;;;;5.33;3.83;;;;;;;23.91;49.04;100296.25;5093932;28;20439;-72
2023/06/16 03:23:33;;;;;;;4.80;4.00;;;;;;;23.91;49.20;100296.25;5075255;28;20673;-72
2023/06/16 03:25:59;;;;;;;4.53;3.00;;;;;;;23.91;49.39;100302.00;5053577;28;20190;-72
2023/06/16 03:28:25;;;;;;;5.47;3.73;;;;;;;23.91;49.78;100304.91;5064903;28;20171;-72
2023/06/16 03:30:52;;;;;;;6.27;3.80;;;;;;;23.89;49.01;100307.34;5058274;28;20190;-71
2023/06/16 03:33:19;;;;;;;8.30;3.87;;;;;;;23.89;49.14;100298.72;5065614;28;20182;-72
2023/06/16 03:35:44;;;;;;;5.67;4.10;;;;;;;23.88;49.38;100305.69;5058510;28;20417;-72
2023/06/16 03:38:10;;;;;;;5.20;3.80;;;;;;;23.88;49.12;100297.03;5057794;28;20498;-72
2023/06/16 03:40:35;;;;;;;4.20;3.60;;;;;;;23.88;49.23;100299.91;5057411;28;20185;-72
2023/06/16 03:43:02;;;;;;;4.90;3.97;;;;;;;23.87;49.24;100312.69;5048768;28;20641;-72
2023/06/16 03:45:27;;;;;;;5.20;4.13;;;;;;;23.88;49.58;100304.88;5057290;28;20182;-72
2023/06/16 03:47:53;;;;;;;4.63;3.93;;;;;;;23.87;49.55;100304.06;5066620;28;20523;-71
2023/06/16 03:50:18;;;;;;;5.27;4.00;;;;;;;23.87;49.48;100308.97;5092833;28;20216;-72
2023/06/16 03:52:44;;;;;;;4.83;3.80;;;;;;;23.87;49.12;100317.63;5060496;28;20677;-72
2023/06/16 03:55:09;;;;;;;5.73;3.97;;;;;;;23.86;49.66;100319.72;5065746;28;20186;-72
2023/06/16 03:57:35;;;;;;;4.90;3.77;;;;;;;23.87;49.24;100324.25;5043656;28;20198;-72
2023/06/16 04:00:00;;;;;;;6.10;3.77;;;;;;;23.87;49.64;100326.28;5060188;28;20185;-72
2023/06/16 04:02:26;;;;;;;6.83;4.00;;;;;;;23.86;49.29;100327.53;5072533;28;20178;-72
2023/06/16 04:04:52;;;;;;;4.30;3.53;;;;;;;23.85;49.19;100332.50;5062010;28;20182;-72
2023/06/16 04:07:18;;;;;;;5.40;4.10;;;;;;;23.85;49.27;100329.59;5060308;28;20181;-72
2023/06/16 04:09:44;;;;;;;4.47;3.73;;;;;;;23.85;48.98;100328.78;5050906;28;20229;-72
2023/06/16 04:12:10;;;;;;;5.57;4.50;;;;;;;23.85;49.34;100331.66;5076833;28;20416;-71
2023/06/16 04:14:35;;;;;;;4.83;3.93;;;;;;;23.85;49.27;100337.44;5092794;28;20250;-72
2023/06/16 04:17:01;;;;;;;5.80;3.80;;;;;;;23.85;49.43;100331.66;5060296;28;20206;-72
2023/06/16 04:19:26;;;;;;;6.03;3.90;;;;;;;23.84;49.35;100332.91;5043583;28;20178;-71
2023/06/16 04:21:52;;;;;;;6.00;4.03;;;;;;;23.83;49.49;100332.06;5075751;28;20166;-72
2023/06/16 04:24:17;;;;;;;5.70;4.13;;;;;;;23.83;49.26;100334.94;5042076;28;20189;-72
2023/06/16 04:26:43;;;;;;;5.17;3.83;;;;;;;23.83;48.99;100345.69;5090171;28;20201;-72
2023/06/16 04:29:09;;;;;;;4.53;3.70;;;;;;;23.83;49.85;100343.59;5077132;28;20181;-72
2023/06/16 04:31:35;;;;;;;5.10;3.80;;;;;;;23.81;49.52;100340.31;5070484;28;20737;-72
2023/06/16 04:34:01;;;;;;;4.67;3.57;;;;;;;23.82;49.34;100344.84;5043969;28;20178;-72
2023/06/16 04:36:29;;;;;;;4.93;3.80;;;;;;;23.82;49.23;100344.84;5059612;28;20316;-72
2023/06/16 04:38:56;;;;;;;9.23;4.00;;;;;;;23.82;49.42;100336.19;5059732;28;20450;-72
2023/06/16 04:41:22;;;;;;;4.70;3.67;;;;;;;23.83;49.40;100340.72;5030255;28;20453;-72
2023/06/16 04:43:47;;;;;;;4.07;3.67;;;;;;;23.85;49.43;100343.19;5076010;28;21031;-72
2023/06/16 04:46:13;;;;;;;5.30;4.10;;;;;;;23.86;49.27;100350.59;5061151;28;20550;-72
2023/06/16 04:48:38;;;;;;;4.97;4.30;;;;;;;23.86;49.39;100348.56;5077391;28;20167;-73
2023/06/16 04:51:04;;;;;;;4.60;3.47;;;;;;;23.87;49.67;100346.47;5061340;28;20197;-72
2023/06/16 04:53:29;;;;;;;5.50;4.23;;;;;;;23.88;49.42;100353.91;5094466;28;20182;-72
2023/06/16 04:55:54;;;;;;;5.50;4.17;;;;;;;23.87;49.57;100353.06;5061058;28;20194;-72
2023/06/16 04:58:20;;;;;;;6.10;4.00;;;;;;;23.87;49.50;100346.47;5076454;28;20201;-71
2023/06/16 05:00:46;;;;;;;5.73;3.93;;;;;;;23.88;49.59;100348.16;5071143;28;20212;-71
2023/06/16 05:03:11;;;;;;;6.27;3.93;;;;;;;23.88;49.72;100351.81;5062214;28;20186;-72
2023/06/16 05:05:37;;;;;;;7.93;4.30;;;;;;;23.89;49.67;100352.69;5055391;28;20539;-72
2023/06/16 05:08:03;;;;;;;5.87;4.27;;;;;;;23.89;49.71;100347.72;5068577;28;20186;-72
2023/06/16 05:10:28;;;;;;;5.80;4.17;;;;;;;23.90;49.71;100352.28;5076241;28;20182;-72
2023/06/16 05:12:54;;;;;;;5.40;4.27;;;;;;;23.90;49.56;100354.34;5093747;28;20218;-72
2023/06/16 05:15:19;;;;;;;4.80;3.50;;;;;;;23.91;49.81;100353.94;5064261;28;20194;-72
2023/06/16 05:17:45;;;;;;;5.83;4.20;;;;;;;23.92;49.90;100346.06;5047512;28;20241;-72
2023/06/16 05:20:11;;;;;;;4.63;3.53;;;;;;;23.91;50.34;100353.09;5048142;28;20650;-72
2023/06/16 05:22:36;;;;;;;5.43;4.10;;;;;;;23.92;50.15;100352.69;5044432;28;20218;-72
2023/06/16 05:25:02;;;;;;;6.10;4.50;;;;;;;23.92;50.92;100351.84;5046254;28;20284;-72
2023/06/16 05:27:27;;;;;;;9.00;4.17;;;;;;;23.92;50.62;100352.69;5060019;28;20177;-72
2023/06/16 05:29:53;;;;;;;6.73;4.40;;;;;;;23.89;49.68;100353.50;5026098;28;20653;-72
2023/06/16 05:32:21;;;;;;;7.03;4.37;;;;;;;23.89;49.47;100350.63;5057060;28;20182;-71
2023/06/16 05:34:47;;;;;;;8.60;4.40;;;;;;;23.86;49.61;100347.72;5042300;28;20417;-71
2023/06/16 05:37:15;;;;;;;14.67;5.20;;;;;;;23.84;50.04;100351.00;5060513;28;20549;-72
2023/06/16 05:39:45;;;;;;;9.33;4.00;;;;;;;23.81;50.67;100353.91;5094300;28;20416;-71
2023/06/16 05:42:11;;;;;;;6.47;4.57;;;;;;;23.85;50.54;100357.63;5092763;28;20492;-72
2023/06/16 05:44:37;;;;;;;11.67;4.47;;;;;;;23.88;50.90;100357.59;5068652;28;20433;-72
2023/06/16 05:47:02;;;;;;;11.50;4.20;;;;;;;23.84;50.82;100353.91;5056772;28;20451;-71
2023/06/16 05:49:28;;;;;;;6.90;4.80;;;;;;;23.82;51.34;100356.38;5098720;28;20232;-71
2023/06/16 05:51:56;;;;;;;13.33;5.07;;;;;;;23.79;50.73;100351.44;5103352;28;20174;-69
2023/06/16 05:54:22;;;;;;;9.20;5.60;;;;;;;23.78;51.20;100355.56;5088379;28;20201;-69
2023/06/16 05:56:47;;;;;;;8.97;5.07;;;;;;;23.83;50.89;100362.97;5083800;28;20460;-69
2023/06/16 05:59:13;;;;;;;9.33;6.30;;;;;;;23.81;50.92;100356.78;5082882;28;20170;-70
2023/06/16 06:01:38;;;;;;;11.80;5.63;;;;;;;23.79;51.23;100365.84;5079538;28;20175;-71
2023/06/16 06:04:04;;;;;;;11.67;5.20;;;;;;;23.81;51.07;100365.44;5079957;28;20185;-71
2023/06/16 06:06:29;;;;;;;17.20;5.50;;;;;;;23.82;51.48;100367.91;5056361;28;20274;-71
2023/06/16 06:08:54;;;;;;;9.33;4.83;;;;;;;23.83;51.30;100372.44;5056334;28;20182;-71
2023/06/16 06:11:20;;;;;;;8.93;5.90;;;;;;;23.83;51.19;100377.41;5084037;28;20178;-71
2023/06/16 06:13:45;;;;;;;8.47;5.30;;;;;;;23.84;51.24;100381.94;5052546;28;20238;-72
2023/06/16 06:16:11;;;;;;;12.90;6.30;;;;;;;23.81;51.23;100383.56;5070876;28;20198;-71
2023/06/16 06:18:37;;;;;;;19.87;5.67;;;;;;;23.80;51.00;100384.00;5068858;28;20193;-71
2023/06/16 06:21:02;;;;;;;15.33;5.60;;;;;;;23.79;51.00;100386.03;5085564;28;20178;-71
2023/06/16 06:23:28;;;;;;;10.23;6.13;;;;;;;23.78;51.09;100386.47;5085679;28;20224;-71
2023/06/16 06:25:53;;;;;;;11.53;5.70;;;;;;;23.74;51.75;100389.34;5084709;28;20190;-71
2023/06/16 06:28:19;;;;;;;7.07;5.13;;;;;;;23.74;51.33;100385.66;5083805;28;20622;-72
2023/06/16 06:30:44;;;;;;;10.30;5.50;;;;;;;23.74;51.71;100389.34;5069492;28;20237;-71
2023/06/16 06:33:10;;;;;;;15.60;6.30;;;;;;;23.73;51.70;100392.66;5068510;28;20204;-71
2023/06/16 06:35:35;;;;;;;9.90;5.90;;;;;;;23.71;51.51;100393.06;5063714;28;20183;-71
2023/06/16 06:38:02;;;;;;;10.50;7.30;;;;;;;23.69;51.47;100391.84;5091070;28;20611;-71
2023/06/16 06:40:28;;;;;;;7.13;5.40;;;;;;;23.68;51.36;100396.78;5056965;28;20571;-72
2023/06/16 06:42:53;;;;;;;12.40;6.60;;;;;;;23.66;51.48;100399.25;5044980;28;20426;-71
2023/06/16 06:45:19;;;;;;;10.00;5.90;;;;;;;23.67;51.26;100394.28;5096324;28;20175;-71
2023/06/16 06:47:45;;;;;;;11.03;5.67;;;;;;;23.65;50.67;100402.53;5085474;28;20177;-71
2023/06/16 06:50:10;;;;;;;9.73;5.50;;;;;;;23.64;50.90;100400.91;5087846;28;20232;-72
2023/06/16 06:52:35;;;;;;;7.87;5.70;;;;;;;23.67;50.31;100415.31;5084355;28;20530;-71
2023/06/16 06:55:01;;;;;;;8.17;5.80;;;;;;;23.69;50.70;100407.06;5072286;28;20171;-71
2023/06/16 06:57:26;;;;;;;8.10;5.53;;;;;;;23.71;51.17;100413.25;5064339;28;20207;-71
2023/06/16 06:59:52;;;;;;;7.93;5.23;;;;;;;23.71;51.04;100410.38;5077319;28;20198;-71
2023/06/16 07:02:17;;;;;;;8.00;5.37;;;;;;;23.72;50.78;100417.78;5048833;28;20186;-71
2023/06/16 07:04:43;;;;;;;10.47;5.73;;;;;;;23.71;50.59;100413.25;5046419;28;20933;-71
2023/06/16 07:07:09;;;;;;;9.03;6.40;;;;;;;23.69;50.67;100418.59;5049979;28;20178;-71
2023/06/16 07:09:34;;;;;;;8.37;5.70;;;;;;;23.68;50.02;100419.84;5075036;28;20455;-71
2023/06/16 07:12:01;;;;;;;7.83;5.00;;;;;;;23.69;50.25;100420.66;5048863;28;20174;-71
2023/06/16 07:14:26;;;;;;;6.93;5.90;;;;;;;23.68;50.55;100419.84;5087352;28;20293;-71
2023/06/16 07:16:52;;;;;;;7.50;5.60;;;;;;;23.66;50.33;100422.31;5084442;28;20456;-71
2023/06/16 07:19:17;;;;;;;9.40;5.67;;;;;;;23.65;50.21;100419.84;5068784;28;20189;-71
2023/06/16 07:21:43;;;;;;;6.20;5.00;;;;;;;23.67;50.44;100417.34;5047678;28;20209;-72
2023/06/16 07:24:08;;;;;;;8.60;5.60;;;;;;;23.66;50.33;100421.47;5081814;28;20178;-71
2023/06/16 07:26:34;;;;;;;10.03;6.30;;;;;;;23.64;49.94;100430.53;5099741;28;20231;-71
2023/06/16 07:29:00;;;;;;;10.03;5.67;;;;;;;23.64;50.14;100430.53;5062350;28;20524;-71
2023/06/16 07:31:26;;;;;;;7.60;5.57;;;;;;;23.64;50.00;100436.31;5074909;28;20265;-71
2023/06/16 07:33:52;;;;;;;14.63;6.37;;;;;;;23.65;50.14;100426.44;5095555;28;20488;-71
2023/06/16 07:36:17;;;;;;;18.10;5.83;;;;;;;23.66;50.71;100430.97;5060653;28;20862;-71
2023/06/16 07:38:43;;;;;;;46.50;7.70;;;;;;;23.67;51.30;100423.97;5078786;28;20171;-71
2023/06/16 07:41:08;;;;;;;20.80;6.73;;;;;;;23.74;53.19;100434.66;5085928;28;20189;-70
2023/06/16 07:43:35;;;;;;;16.90;6.77;;;;;;;23.78;53.09;100430.53;5085497;28;20179;-70
2023/06/16 07:46:00;;;;;;;26.63;6.50;;;;;;;23.78;52.50;100436.28;5069161;28;20666;-71
2023/06/16 07:48:26;;;;;;;24.00;6.60;;;;;;;23.75;51.18;100431.38;5065060;28;20430;-71
2023/06/16 07:50:53;;;;;;;14.90;5.80;;;;;;;23.73;51.34;100439.59;5060366;28;20177;-71
2023/06/16 07:53:19;;;;;;;22.37;6.73;;;;;;;23.75;50.98;100447.84;5074789;28;20630;-71
2023/06/16 07:55:45;;;;;;;15.47;4.97;;;;;;;23.74;51.63;100447.00;5063915;28;20479;-71
2023/06/16 07:58:10;;;;;;;12.27;5.60;;;;;;;23.75;51.78;100442.91;5072266;28;20460;-72
2023/06/16 08:00:36;;;;;;;16.00;5.93;;;;;;;23.74;51.33;100441.22;5059777;28;20178;-71
2023/06/16 08:03:01;;;;;;;13.23;5.17;;;;;;;23.76;51.23;100443.72;5072513;28;20178;-71
2023/06/16 08:05:27;;;;;;;15.80;6.60;;;;;;;23.75;51.28;100431.38;5043451;28;20185;-72
2023/06/16 08:07:52;;;;;;;8.93;6.00;;;;;;;23.75;51.40;100434.25;5071475;28;20178;-72
2023/06/16 08:10:20;;;;;;;8.73;6.13;;;;;;;23.75;51.54;100424.78;5073920;28;20185;-71
2023/06/16 08:12:46;;;;;;;12.03;5.53;;;;;;;23.75;51.40;100425.59;5030373;28;20667;-72
2023/06/16 08:15:12;;;;;;;12.30;5.83;;;;;;;23.76;51.50;100420.66;5041663;28;20449;-72
2023/06/16 08:17:37;;;;;;;12.10;5.80;;;;;;;23.74;51.60;100418.16;5032352;28;20468;-71
2023/06/16 08:20:06;;;;;;;10.07;5.00;;;;;;;23.73;51.47;100410.75;5030395;28;20195;-71
2023/06/16 08:22:31;;;;;;;14.50;5.53;;;;;;;23.75;51.20;100419.00;5050826;28;20251;-71
2023/06/16 08:24:57;;;;;;;13.40;5.40;;;;;;;23.74;51.32;100405.84;5034250;28;20426;-71
2023/06/16 08:27:22;;;;;;;11.73;5.00;;;;;;;23.74;51.39;100418.16;5049016;28;20179;-71
2023/06/16 08:29:48;;;;;;;8.57;5.40;;;;;;;23.74;51.48;100412.41;5037173;28;20172;-71
2023/06/16 08:32:13;;;;;;;10.50;5.93;;;;;;;23.74;51.33;100411.59;5034832;28;20179;-71
2023/06/16 08:34:39;;;;;;;9.30;5.03;;;;;;;23.74;51.23;100412.41;5049447;28;20199;-72
2023/06/16 08:37:05;;;;;;;15.50;5.30;;;;;;;23.74;51.32;100412.41;5051744;28;20793;-71
2023/06/16 08:39:30;;;;;;;15.50;5.27;;;;;;;23.74;51.49;100411.59;5019607;28;20188;-71
2023/06/16 08:41:56;;;;;;;7.83;5.40;;;;;;;23.75;51.40;100416.13;5032372;28;20193;-71
2023/06/16 08:44:21;;;;;;;9.50;5.80;;;;;;;23.73;51.08;100410.75;5049795;28;20624;-71
2023/06/16 08:46:47;;;;;;;10.40;5.90;;;;;;;23.74;51.20;100412.41;5030250;28;20180;-71
2023/06/16 08:49:15;;;;;;;13.97;6.23;;;;;;;23.75;50.95;100408.31;5013419;28;20754;-71
2023/06/16 08:51:43;;;;;;;9.47;5.03;;;;;;;23.74;50.95;100411.59;5026258;28;20457;-71
2023/06/16 08:54:10;;;;;;;11.63;6.03;;;;;;;23.74;51.17;100409.53;5033931;28;20902;-71
2023/06/16 08:56:36;;;;;;;8.20;5.23;;;;;;;23.75;51.27;100401.72;5029066;28;20449;-71
2023/06/16 08:59:01;;;;;;;15.57;5.50;;;;;;;23.75;50.86;100408.31;5050058;28;20446;-71
2023/06/16 09:01:28;;;;;;;11.80;5.30;;;;;;;23.75;50.92;100402.53;5018961;28;20176;-71
2023/06/16 09:03:55;;;;;;;12.63;5.47;;;;;;;23.76;50.87;100403.34;5014359;28;20203;-71
2023/06/16 09:06:21;;;;;;;15.73;6.07;;;;;;;23.74;50.84;100406.63;5026007;28;20453;-71
2023/06/16 09:08:47;;;;;;;13.77;5.50;;;;;;;23.76;50.83;100403.34;5031851;28;20445;-71
2023/06/16 09:11:12;;;;;;;10.03;5.20;;;;;;;23.77;50.48;100400.06;5030778;28;20911;-71
2023/06/16 09:13:42;;;;;;;9.70;6.03;;;;;;;23.76;50.63;100398.41;5037942;28;20698;-71
2023/06/16 09:16:09;;;;;;;9.00;5.10;;;;;;;23.76;50.48;100401.31;5042542;28;20207;-71
2023/06/16 09:18:41;;;;;;;11.00;5.07;;;;;;;23.77;50.01;100394.28;5020587;28;20982;-71
2023/06/16 09:21:07;;;;;;;10.90;5.60;;;;;;;23.78;49.73;100395.13;5029460;28;20447;-71
2023/06/16 09:23:34;;;;;;;10.10;5.97;;;;;;;23.79;49.92;100396.75;5049648;28;20487;-71
2023/06/16 09:25:59;;;;;;;12.77;5.43;;;;;;;23.78;49.63;100395.94;5036427;28;20446;-71
2023/06/16 09:28:45;;;;;;;9.17;5.70;;;;;;;23.78;50.28;100392.25;5020229;28;20419;-71
2023/06/16 09:31:12;;;;;;;7.60;4.80;;;;;;;23.77;50.19;100388.53;5036407;28;20241;-71
2023/06/16 09:33:38;;;;;;;10.83;5.27;;;;;;;23.78;50.20;100386.47;5035766;28;20459;-71
2023/06/16 09:36:03;;;;;;;14.20;5.90;;;;;;;23.78;49.56;100387.28;5053887;28;20425;-72
2023/06/16 09:38:36;;;;;;;8.50;5.27;;;;;;;23.79;47.99;100386.03;5056817;28;20228;-72
2023/06/16 09:41:09;;;;;;;10.90;5.47;;;;;;;23.80;47.75;100390.59;5050755;28;20244;-71
2023/06/16 09:43:36;;;;;;;7.83;4.50;;;;;;;23.79;48.05;100391.81;5018803;28;20430;-71
2023/06/16 09:46:02;;;;;;;9.93;5.20;;;;;;;23.80;47.40;100387.72;5013654;28;20753;-71
2023/06/16 09:48:27;;;;;;;7.27;5.00;;;;;;;23.80;47.77;100387.72;5054966;28;20439;-71
2023/06/16 09:50:53;;;;;;;5.97;4.70;;;;;;;23.81;47.57;100379.84;5044557;28;20192;-72
2023/06/16 09:53:21;;;;;;;12.70;5.60;;;;;;;23.80;47.05;100381.94;5070938;28;20176;-71
2023/06/16 09:55:47;;;;;;;9.70;5.10;;;;;;;23.81;46.17;100374.09;5041099;28;20925;-72
2023/06/16 09:58:12;;;;;;;6.93;4.17;;;;;;;23.82;46.48;100376.56;5020049;28;20459;-71
2023/06/16 10:00:37;;;;;;;8.73;4.60;;;;;;;23.82;46.16;100373.69;5036624;28;20541;-71
2023/06/16 10:03:07;;;;;;;8.30;4.90;;;;;;;23.82;46.83;100372.84;5056315;28;20183;-71
2023/06/16 10:05:34;;;;;;;5.90;4.20;;;;;;;23.81;46.82;100372.03;5032332;28;20176;-71
2023/06/16 10:08:00;;;;;;;6.60;4.50;;;;;;;23.83;46.05;100368.75;5039896;28;20497;-71
2023/06/16 10:10:27;;;;;;;9.90;4.43;;;;;;;23.83;46.18;100371.63;5046268;28;20448;-71
2023/06/16 10:12:53;;;;;;;11.33;5.33;;;;;;;23.84;45.91;100374.06;5068032;28;20518;-71
2023/06/16 10:15:21;;;;;;;6.93;4.80;;;;;;;23.84;45.83;100376.97;5038344;28;20492;-71
2023/06/16 10:17:48;;;;;;;8.00;4.63;;;;;;;23.84;46.13;100365.44;5046904;28;21187;-71
2023/06/16 10:20:15;;;;;;;10.30;5.10;;;;;;;23.83;45.77;100368.75;5045636;28;20434;-71
2023/06/16 10:22:41;;;;;;;8.07;4.23;;;;;;;23.84;46.20;100365.44;5066431;28;20535;-71
2023/06/16 10:25:07;;;;;;;10.40;4.77;;;;;;;23.85;46.22;100360.50;5055138;28;20489;-72
2023/06/16 10:27:33;;;;;;;6.73;4.50;;;;;;;23.85;45.89;100363.38;5040304;28;20187;-71
2023/06/16 10:30:00;;;;;;;5.63;4.13;;;;;;;23.85;45.54;100358.44;5037150;28;20432;-71
2023/06/16 10:32:26;;;;;;;6.27;4.50;;;;;;;23.85;45.88;100361.34;5038765;28;20832;-71
2023/06/16 10:34:56;;;;;;;8.07;4.50;;;;;;;23.85;45.63;100355.56;5069533;28;20429;-71
2023/06/16 10:37:22;;;;;;;8.17;5.10;;;;;;;23.84;45.86;100353.91;5040306;28;20278;-71
2023/06/16 10:39:47;;;;;;;12.07;5.03;;;;;;;23.85;46.06;100346.91;5044915;28;20425;-71
2023/06/16 10:42:13;;;;;;;8.80;4.50;;;;;;;23.85;46.03;100348.97;5052223;28;20233;-71
2023/06/16 10:44:40;;;;;;;7.00;4.70;;;;;;;23.86;45.90;100350.59;5035346;28;20612;-71
2023/06/16 10:47:08;;;;;;;7.80;4.27;;;;;;;23.86;46.02;100350.59;5042105;28;20795;-71
2023/06/16 10:49:43;;;;;;;6.20;4.23;;;;;;;23.87;45.84;100350.19;5064454;28;20428;-71
2023/06/16 10:52:08;;;;;;;7.80;4.40;;;;;;;23.87;45.94;100347.31;5071033;28;20504;-71
2023/06/16 10:54:37;;;;;;;7.37;4.77;;;;;;;23.89;45.03;100344.03;5063030;28;20422;-71
2023/06/16 10:57:06;;;;;;;7.97;4.30;;;;;;;23.90;45.01;100339.91;5060801;28;20208;-71
2023/06/16 10:59:54;;;;;;;7.47;4.70;;;;;;;23.90;44.83;100334.16;5025781;28;21052;-72
2023/06/16 11:02:24;;;;;;;9.47;5.00;;;;;;;23.91;44.66;100342.38;5064871;28;20406;-71
2023/06/16 11:05:08;;;;;;;10.80;5.43;;;;;;;23.91;44.78;100336.63;5057494;28;20445;-71
2023/06/16 11:07:46;;;;;;;10.53;4.10;;;;;;;23.91;44.42;100330.84;5064417;28;20417;-71
2023/06/16 11:10:16;;;;;;;9.50;5.10;;;;;;;23.92;44.57;100338.25;5030949;28;20421;-71
2023/06/16 11:12:42;;;;;;;5.33;4.00;;;;;;;23.92;44.06;100338.25;5062639;28;20469;-71
2023/06/16 11:15:08;;;;;;;6.00;4.00;;;;;;;23.91;44.25;100342.38;5048298;28;20434;-72
2023/06/16 11:17:33;;;;;;;6.80;4.77;;;;;;;23.91;44.33;100339.50;5067459;28;20206;-71
2023/06/16 11:20:01;;;;;;;6.90;4.50;;;;;;;23.92;44.47;100344.03;5054928;28;20187;-72
2023/06/16 11:22:38;;;;;;;6.87;4.43;;;;;;;23.91;44.77;100333.75;5032225;28;20633;-71